Аэропорт: Нахичевань. Нахичевань

ICAO: UBBN

METAR:
2019/03/26 13:00
UBBN 261300Z 24004KT 9999 FEW040CB BKN100 10/02 Q1011 R14R/CLRD// NOSIG RMK MT OP QFE683
METAR:
2019/03/26 12:00
TAF UBBN 261100Z 2612/2712 34010KT 8000 SCT040 FEW050CB BKN100 TX10/2612Z TN02/2703Z 
      TEMPO 2612/2624 25014KT -SHRA SCT040CB BKN090